createdAt,value
2019-01-21T00:01:02.488Z,45.90
2019-01-21T00:03:30.712Z,48.93
2019-01-21T00:05:59.856Z,47.90
2019-01-21T00:08:28.063Z,53.83
2019-01-21T00:10:56.307Z,45.07
2019-01-21T00:13:24.528Z,58.50
2019-01-21T00:15:52.903Z,61.20
2019-01-21T00:18:21.225Z,48.67
2019-01-21T00:20:49.467Z,57.23
2019-01-21T00:23:17.685Z,40.70
2019-01-21T00:25:45.935Z,57.80
2019-01-21T00:28:14.148Z,54.97
2019-01-21T00:30:42.467Z,55.17
2019-01-21T00:33:10.680Z,54.10
2019-01-21T00:35:38.925Z,57.63
2019-01-21T00:38:07.147Z,49.33
2019-01-21T00:40:35.393Z,51.90
2019-01-21T00:43:03.627Z,47.50
2019-01-21T00:45:31.869Z,44.27
2019-01-21T00:48:00.088Z,44.07
2019-01-21T00:50:28.408Z,48.53
2019-01-21T00:52:56.630Z,49.37
2019-01-21T00:55:24.848Z,52.27
2019-01-21T00:57:53.091Z,47.87
2019-01-21T01:00:22.483Z,45.73
2019-01-21T01:02:50.728Z,51.67
2019-01-21T01:05:19.424Z,56.40
2019-01-21T01:07:47.667Z,38.20
2019-01-21T01:10:15.962Z,52.60
2019-01-21T01:12:44.203Z,52.93
2019-01-21T01:15:13.491Z,48.90
2019-01-21T01:17:42.008Z,52.17
2019-01-21T01:20:11.701Z,49.67
2019-01-21T01:22:39.947Z,53.43
2019-01-21T01:25:08.641Z,54.30
2019-01-21T01:27:36.958Z,46.00
2019-01-21T01:30:06.846Z,49.23
2019-01-21T01:32:35.093Z,46.87
2019-01-21T01:35:03.579Z,42.67
2019-01-21T01:37:31.827Z,48.63
2019-01-21T01:40:00.042Z,42.07
2019-01-21T01:42:28.283Z,44.50
2019-01-21T01:44:56.499Z,27.40
2019-01-21T01:47:24.828Z,49.47
2019-01-21T01:49:53.045Z,60.37
2019-01-21T01:52:21.572Z,52.30
2019-01-21T01:54:49.819Z,46.13
2019-01-21T01:57:18.041Z,41.77
2019-01-21T01:59:46.294Z,49.93
2019-01-21T02:02:14.507Z,45.93
2019-01-21T02:04:42.832Z,40.93
2019-01-21T02:07:11.051Z,42.83
2019-01-21T02:09:39.296Z,46.80
2019-01-21T02:12:07.511Z,41.30
2019-01-21T02:14:35.758Z,47.40
2019-01-21T02:17:04.024Z,53.77
2019-01-21T02:19:32.671Z,34.77
2019-01-21T02:22:02.268Z,41.50
2019-01-21T02:24:32.052Z,44.57
2019-01-21T02:27:01.812Z,43.90
2019-01-21T02:29:31.600Z,49.80
2019-01-21T02:32:01.604Z,56.37
2019-01-21T02:34:31.346Z,40.03
2019-01-21T02:37:12.885Z,46.10
2019-01-21T02:39:42.639Z,40.50
2019-01-21T02:42:12.742Z,34.67
2019-01-21T02:44:45.158Z,33.50
2019-01-21T02:47:20.928Z,30.07
2019-01-21T02:49:59.804Z,49.80
2019-01-21T02:52:32.254Z,38.20
2019-01-21T02:55:02.016Z,41.20
2019-01-21T02:57:37.908Z,39.30
2019-01-21T03:00:07.950Z,39.23
2019-01-21T03:02:38.036Z,40.43
2019-01-21T03:05:24.616Z,50.73
2019-01-21T03:08:03.294Z,32.17
2019-01-21T03:10:49.871Z,38.20
2019-01-21T03:13:22.568Z,37.63
2019-01-21T03:15:58.314Z,48.10
2019-01-21T03:18:31.097Z,48.87
2019-01-21T03:21:17.556Z,41.77
2019-01-21T03:24:03.892Z,37.13
2019-01-21T03:26:33.702Z,39.20
2019-01-21T03:29:15.554Z,44.53
2019-01-21T03:31:48.301Z,36.40
2019-01-21T03:34:18.258Z,36.50
2019-01-21T03:37:04.742Z,40.37
2019-01-21T03:39:40.489Z,36.30
2019-01-21T03:42:13.200Z,42.07
2019-01-21T03:44:42.956Z,44.83
2019-01-21T03:47:12.748Z,37.20
2019-01-21T03:49:45.421Z,43.03
2019-01-21T03:52:18.164Z,36.73
2019-01-21T03:54:47.558Z,37.87
2019-01-21T03:57:17.685Z,37.57
2019-01-21T04:00:04.329Z,29.87
2019-01-21T04:02:43.073Z,31.73
2019-01-21T04:05:12.831Z,40.87
2019-01-21T04:07:54.582Z,37.40
2019-01-21T04:10:27.435Z,38.53
2019-01-21T04:13:09.457Z,40.87
2019-01-21T04:15:42.042Z,48.23
2019-01-21T04:18:14.790Z,43.53
2019-01-21T04:20:53.725Z,36.23
2019-01-21T04:23:40.204Z,31.97
2019-01-21T04:26:26.718Z,39.33
2019-01-21T04:28:56.505Z,29.37
2019-01-21T04:31:26.517Z,44.13
2019-01-21T04:33:56.355Z,43.80
2019-01-21T04:36:42.972Z,31.30
2019-01-21T04:39:18.476Z,32.55
2019-01-21T04:42:05.023Z,43.30
2019-01-21T04:44:43.982Z,34.37
2019-01-21T04:47:16.696Z,33.47
2019-01-21T04:49:46.485Z,33.87
2019-01-21T04:52:28.216Z,34.30
2019-01-21T04:54:58.009Z,31.57
2019-01-21T04:57:27.764Z,36.20
2019-01-21T05:00:13.992Z,43.63
2019-01-21T05:03:00.920Z,42.10
2019-01-21T05:05:33.373Z,31.33
2019-01-21T05:08:21.085Z,37.43
2019-01-21T05:10:50.876Z,32.57
2019-01-21T05:13:20.638Z,33.80
2019-01-21T05:15:56.228Z,35.40
2019-01-21T05:18:31.718Z,29.97
2019-01-21T05:21:01.509Z,34.87
2019-01-21T05:23:47.985Z,32.47
2019-01-21T05:26:23.462Z,36.43
2019-01-21T05:28:56.196Z,43.97
2019-01-21T05:31:25.991Z,32.50
2019-01-21T05:33:58.428Z,30.67
2019-01-21T05:36:28.216Z,32.73
2019-01-21T05:39:01.132Z,33.50
2019-01-21T05:41:30.930Z,41.33
2019-01-21T05:44:15.962Z,43.93
2019-01-21T05:46:51.709Z,37.77
2019-01-21T05:49:24.559Z,37.20
2019-01-21T05:51:57.004Z,33.63
2019-01-21T05:54:26.800Z,35.43
2019-01-21T05:56:59.761Z,44.00
2019-01-21T05:59:44.601Z,38.33
2019-01-21T06:02:23.392Z,35.00
2019-01-21T06:04:53.152Z,35.67
2019-01-21T06:07:28.973Z,34.73
2019-01-21T06:09:58.732Z,38.47
2019-01-21T06:12:28.517Z,40.13
2019-01-21T06:15:01.007Z,30.17
2019-01-21T06:17:40.060Z,36.40
2019-01-21T06:20:12.794Z,40.13
2019-01-21T06:22:42.580Z,38.60
2019-01-21T06:25:14.997Z,49.80
2019-01-21T06:27:50.788Z,33.00
2019-01-21T06:30:20.549Z,37.97
2019-01-21T06:32:59.292Z,35.17
2019-01-21T06:35:34.981Z,37.80
2019-01-21T06:38:07.628Z,33.90
2019-01-21T06:40:55.456Z,44.60
2019-01-21T06:43:25.243Z,40.00
2019-01-21T06:46:01.040Z,33.70
2019-01-21T06:48:45.788Z,34.33
2019-01-21T06:51:15.551Z,36.17
2019-01-21T06:53:51.360Z,39.20
2019-01-21T06:56:37.613Z,41.97
2019-01-21T06:59:07.399Z,47.70
2019-01-21T07:01:52.150Z,45.47
2019-01-21T07:04:28.112Z,46.00
2019-01-21T07:07:09.830Z,33.10
2019-01-21T07:09:39.622Z,53.07
2019-01-21T07:12:09.454Z,35.80
2019-01-21T07:14:55.745Z,40.50
2019-01-21T07:17:31.956Z,46.03
2019-01-21T07:20:01.750Z,40.57
2019-01-21T07:22:34.172Z,75.28
2019-01-21T07:25:15.911Z,41.37
2019-01-21T07:27:51.845Z,42.73
2019-01-21T07:30:36.945Z,53.67
2019-01-21T07:33:06.705Z,41.20
2019-01-21T07:35:53.387Z,36.07
2019-01-21T07:38:23.150Z,43.07
2019-01-21T07:40:55.872Z,40.10
2019-01-21T07:43:34.885Z,31.33
2019-01-21T07:46:07.681Z,44.00
2019-01-21T07:48:49.499Z,37.23
2019-01-21T07:51:25.161Z,45.47
2019-01-21T07:53:57.865Z,39.57
2019-01-21T07:56:27.655Z,28.40
2019-01-21T07:58:57.420Z,36.23
2019-01-21T08:01:30.136Z,37.43
2019-01-21T08:03:59.897Z,35.30
2019-01-21T08:06:29.689Z,33.83
2019-01-21T08:08:59.444Z,36.43
2019-01-21T08:11:34.972Z,40.63
2019-01-21T08:14:04.728Z,33.67
2019-01-21T08:16:34.516Z,44.33
2019-01-21T08:19:06.944Z,35.90
2019-01-21T08:21:53.472Z,40.77
2019-01-21T08:24:39.988Z,50.80
2019-01-21T08:27:09.776Z,36.10
2019-01-21T08:29:39.541Z,40.23
2019-01-21T08:32:09.324Z,45.47
2019-01-21T08:34:48.230Z,44.83
2019-01-21T08:37:20.944Z,43.53
2019-01-21T08:39:56.404Z,36.33
2019-01-21T08:42:42.940Z,40.63
2019-01-21T08:45:21.707Z,41.80
2019-01-21T08:47:51.497Z,36.63
2019-01-21T08:50:24.441Z,34.80
2019-01-21T08:53:12.332Z,37.50
2019-01-21T08:55:42.092Z,38.90
2019-01-21T08:58:24.031Z,48.60
2019-01-21T09:00:53.797Z,39.93
2019-01-21T09:03:23.584Z,39.07
2019-01-21T09:05:53.336Z,41.33
2019-01-21T09:08:37.736Z,38.03
2019-01-21T09:11:24.582Z,46.67
2019-01-21T09:14:09.682Z,24.20
2019-01-21T09:16:39.446Z,44.10
2019-01-21T09:19:11.935Z,31.13
2019-01-21T09:21:41.684Z,34.87
2019-01-21T09:24:20.756Z,31.10
2019-01-21T09:26:53.321Z,35.77
2019-01-21T09:29:23.112Z,40.37
2019-01-21T09:31:52.872Z,37.87
2019-01-21T09:34:39.309Z,37.20
2019-01-21T09:37:18.276Z,39.97
2019-01-21T09:39:48.064Z,37.73
2019-01-21T09:42:34.504Z,29.20
2019-01-21T09:45:16.200Z,26.90
2019-01-21T09:47:43.892Z,39.43
2019-01-21T09:50:12.142Z,39.10
2019-01-21T09:52:41.133Z,35.40
2019-01-21T09:55:09.457Z,37.97
2019-01-21T09:57:37.952Z,33.87
2019-01-21T10:00:07.743Z,37.70
2019-01-21T10:02:36.736Z,33.33
2019-01-21T10:05:06.561Z,28.17
2019-01-21T10:07:36.322Z,32.57
2019-01-21T10:10:11.848Z,37.77
2019-01-21T10:12:44.670Z,45.35
2019-01-21T10:15:17.576Z,28.77
2019-01-21T10:18:05.448Z,37.10
2019-01-21T10:20:35.212Z,28.90
2019-01-21T10:23:19.896Z,29.37
2019-01-21T10:25:49.688Z,29.93
2019-01-21T10:28:19.448Z,25.73
2019-01-21T10:30:49.240Z,37.03
2019-01-21T10:33:21.679Z,13.40
2019-01-21T10:36:08.107Z,32.70
2019-01-21T10:38:54.368Z,28.40
2019-01-21T10:41:24.136Z,31.07
2019-01-21T10:44:00.184Z,24.03
2019-01-21T10:46:29.952Z,28.40
2019-01-21T10:48:59.708Z,28.17
2019-01-21T10:51:35.484Z,29.43
2019-01-21T10:54:05.244Z,23.43
2019-01-21T10:56:35.037Z,31.87
2019-01-21T10:59:07.481Z,30.70
2019-01-21T11:01:43.393Z,29.17
2019-01-21T11:04:13.152Z,24.63
2019-01-21T11:06:45.882Z,23.63
2019-01-21T11:09:15.645Z,23.97
2019-01-21T11:11:53.924Z,16.67
2019-01-21T11:14:35.465Z,28.20
2019-01-21T11:17:05.257Z,27.83
2019-01-21T11:19:43.898Z,32.63
2019-01-21T11:22:13.819Z,30.87
2019-01-21T11:25:01.912Z,24.37
2019-01-21T11:27:48.184Z,28.60
2019-01-21T11:30:17.967Z,25.50
2019-01-21T11:32:50.392Z,32.83
2019-01-21T11:35:26.179Z,25.80
2019-01-21T11:37:55.940Z,30.37
2019-01-21T11:40:37.831Z,30.07
2019-01-21T11:43:10.506Z,30.63
2019-01-21T11:45:56.711Z,34.23
2019-01-21T11:48:29.532Z,28.77
2019-01-21T11:51:11.556Z,29.27
2019-01-21T11:53:41.344Z,28.27
2019-01-21T11:56:20.311Z,23.03
2019-01-21T11:58:52.988Z,26.83
2019-01-21T12:01:28.486Z,29.77
2019-01-21T12:03:58.244Z,31.53
2019-01-21T12:06:46.149Z,30.27
2019-01-21T12:09:15.877Z,26.93
2019-01-21T12:11:45.679Z,31.63
2019-01-21T12:14:15.443Z,29.80
2019-01-21T12:17:01.639Z,35.17
2019-01-21T12:19:31.401Z,27.93
2019-01-21T12:22:03.847Z,25.73
2019-01-21T12:24:32.341Z,27.20
2019-01-21T12:27:11.337Z,25.53
2019-01-21T12:29:47.044Z,32.87
2019-01-21T12:32:28.632Z,32.70
2019-01-21T12:34:58.401Z,27.33
2019-01-21T12:37:34.043Z,40.47
2019-01-21T12:40:19.001Z,30.13
2019-01-21T12:42:48.789Z,25.80
2019-01-21T12:45:18.547Z,27.10
2019-01-21T12:47:51.300Z,31.07
2019-01-21T12:50:24.253Z,37.67
2019-01-21T12:52:59.832Z,27.37
2019-01-21T12:55:29.564Z,31.47
2019-01-21T12:58:02.211Z,32.13
2019-01-21T13:00:37.822Z,23.73
2019-01-21T13:03:16.518Z,28.10
2019-01-21T13:05:46.280Z,29.43
2019-01-21T13:08:19.016Z,15.53
2019-01-21T13:11:04.138Z,33.60
2019-01-21T13:13:52.071Z,27.13
2019-01-21T13:16:24.536Z,24.10
2019-01-21T13:19:06.000Z,34.33
2019-01-21T13:21:52.255Z,19.90
2019-01-21T13:24:38.520Z,33.13
2019-01-21T13:27:08.284Z,23.47
2019-01-21T13:29:38.068Z,30.27
2019-01-21T13:32:13.902Z,27.03
2019-01-21T13:34:49.883Z,26.20
2019-01-21T13:37:22.810Z,29.07
2019-01-21T13:39:52.600Z,23.47
2019-01-21T13:42:22.356Z,22.17
2019-01-21T13:45:09.093Z,35.97
2019-01-21T13:47:51.088Z,24.37
2019-01-21T13:50:37.544Z,26.43
2019-01-21T13:53:10.008Z,27.67
2019-01-21T13:55:39.796Z,30.13
2019-01-21T13:58:09.556Z,27.17
2019-01-21T14:00:42.016Z,33.20
2019-01-21T14:03:11.776Z,31.23
2019-01-21T14:05:47.563Z,31.13
2019-01-21T14:08:23.526Z,32.57
2019-01-21T14:11:02.302Z,26.37
2019-01-21T14:13:34.937Z,35.83
2019-01-21T14:16:17.000Z,22.53
2019-01-21T14:18:46.764Z,23.60
2019-01-21T14:21:16.553Z,24.13
2019-01-21T14:23:58.540Z,30.90
2019-01-21T14:26:28.332Z,26.67
2019-01-21T14:28:58.096Z,27.47
2019-01-21T14:31:27.897Z,24.57
2019-01-21T14:33:57.652Z,28.20
2019-01-21T14:36:45.523Z,20.67
2019-01-21T14:39:21.434Z,29.13
2019-01-21T14:41:51.224Z,27.27
2019-01-21T14:44:20.993Z,35.57
2019-01-21T14:47:00.064Z,28.93
2019-01-21T14:49:32.812Z,28.60
2019-01-21T14:52:08.567Z,33.10
2019-01-21T14:54:41.396Z,37.70
2019-01-21T14:57:11.156Z,33.13
2019-01-21T14:59:43.907Z,35.10
2019-01-21T15:02:19.893Z,26.27
2019-01-21T15:04:49.747Z,27.80
2019-01-21T15:07:22.452Z,25.57
2019-01-21T15:09:58.282Z,31.97
2019-01-21T15:12:43.365Z,31.47
2019-01-21T15:15:19.256Z,71.30
2019-01-21T15:17:55.156Z,65.67
2019-01-21T15:20:24.912Z,36.13
2019-01-21T15:22:54.749Z,32.17
2019-01-21T15:25:30.349Z,28.20
2019-01-21T15:28:15.602Z,36.43
2019-01-21T15:30:45.345Z,33.70
2019-01-21T15:33:15.941Z,26.27
2019-01-21T15:35:54.832Z,24.73
2019-01-21T15:38:27.605Z,34.13
2019-01-21T15:41:00.085Z,28.70
2019-01-21T15:43:29.866Z,42.40
2019-01-21T15:46:08.609Z,29.80
2019-01-21T15:48:38.408Z,33.63
2019-01-21T15:51:10.924Z,32.83
2019-01-21T15:53:49.616Z,35.63
2019-01-21T15:56:19.380Z,39.50
2019-01-21T15:58:49.176Z,32.07
2019-01-21T16:01:27.957Z,35.33
2019-01-21T16:03:57.748Z,29.70
2019-01-21T16:06:33.340Z,30.43
2019-01-21T16:09:06.083Z,35.67
2019-01-21T16:11:38.822Z,29.47
2019-01-21T16:14:07.342Z,38.43
2019-01-21T16:16:43.021Z,29.67
2019-01-21T16:19:13.036Z,30.03
2019-01-21T16:21:45.405Z,28.30
2019-01-21T16:24:18.273Z,43.60
2019-01-21T16:26:48.037Z,42.97
2019-01-21T16:29:17.828Z,35.40
2019-01-21T16:31:47.224Z,32.50
2019-01-21T16:34:16.989Z,28.53
2019-01-21T16:36:58.852Z,39.87
2019-01-21T16:39:37.783Z,31.83
2019-01-21T16:42:10.220Z,27.10
2019-01-21T16:44:38.517Z,36.23
2019-01-21T16:47:06.730Z,46.80
2019-01-21T16:49:34.955Z,33.67
2019-01-21T16:52:03.273Z,32.40
2019-01-21T16:54:31.565Z,28.33
2019-01-21T16:56:59.821Z,22.90
2019-01-21T16:59:29.454Z,31.43
2019-01-21T17:01:57.795Z,27.40
2019-01-21T17:04:26.020Z,30.60
2019-01-21T17:06:54.345Z,39.53
2019-01-21T17:09:22.569Z,31.90
2019-01-21T17:11:51.104Z,35.40
2019-01-21T17:14:19.320Z,34.40
2019-01-21T17:16:47.645Z,31.27
2019-01-21T17:19:15.883Z,37.27
2019-01-21T17:21:44.125Z,40.33
2019-01-21T17:24:12.345Z,31.33
2019-01-21T17:26:40.592Z,31.77
2019-01-21T17:29:08.815Z,35.93
2019-01-21T17:31:37.075Z,33.00
2019-01-21T17:34:05.362Z,24.20
2019-01-21T17:36:33.614Z,29.63
2019-01-21T17:39:01.840Z,24.77
2019-01-21T17:41:30.097Z,39.53
2019-01-21T17:43:58.317Z,30.83
2019-01-21T17:46:26.540Z,23.73
2019-01-21T17:48:54.790Z,28.93
2019-01-21T17:51:23.080Z,32.70
2019-01-21T17:53:51.578Z,88.57
2019-01-21T17:56:19.927Z,67.60
2019-01-21T17:58:48.180Z,48.20
2019-01-21T18:01:16.404Z,37.03
2019-01-21T18:03:44.652Z,36.73
2019-01-21T18:06:12.880Z,32.50
2019-01-21T18:08:41.128Z,42.47
2019-01-21T18:11:09.431Z,35.70
2019-01-21T18:13:37.672Z,32.97
2019-01-21T18:16:05.970Z,34.07
2019-01-21T18:18:34.219Z,36.80
2019-01-21T18:21:02.445Z,37.00
2019-01-21T18:23:30.700Z,37.53
2019-01-21T18:25:58.988Z,32.33
2019-01-21T18:28:27.239Z,28.07
2019-01-21T18:30:55.460Z,25.00
2019-01-21T18:33:23.708Z,30.87
2019-01-21T18:35:52.001Z,36.23
2019-01-21T18:38:20.332Z,31.57
2019-01-21T18:40:48.556Z,29.10
2019-01-21T18:43:16.804Z,35.67
2019-01-21T18:45:45.096Z,34.20
2019-01-21T18:48:13.349Z,31.97
2019-01-21T18:50:41.648Z,36.77
2019-01-21T18:53:09.900Z,30.93
2019-01-21T18:55:38.115Z,34.57
2019-01-21T18:58:06.332Z,36.20
2019-01-21T19:00:34.592Z,38.17
2019-01-21T19:03:02.809Z,38.87
2019-01-21T19:05:31.065Z,32.67
2019-01-21T19:07:59.288Z,35.90
2019-01-21T19:10:27.541Z,46.20
2019-01-21T19:12:55.771Z,33.07
2019-01-21T19:15:25.388Z,24.93
2019-01-21T19:17:53.615Z,36.60
2019-01-21T19:20:21.862Z,41.57
2019-01-21T19:22:50.084Z,33.20
2019-01-21T19:25:18.332Z,35.20
2019-01-21T19:27:46.556Z,35.83
2019-01-21T19:30:18.864Z,29.33
2019-01-21T19:32:47.088Z,32.63
2019-01-21T19:35:16.615Z,31.20
2019-01-21T19:37:44.837Z,36.97
2019-01-21T19:40:14.751Z,32.13
2019-01-21T19:42:42.972Z,29.77
2019-01-21T19:45:11.489Z,36.10
2019-01-21T19:47:39.707Z,30.43
2019-01-21T19:50:09.496Z,34.23
2019-01-21T19:52:37.720Z,33.70
2019-01-21T19:55:07.516Z,36.47
2019-01-21T19:57:35.740Z,31.10
2019-01-21T20:00:05.539Z,40.53
2019-01-21T20:02:33.755Z,41.27
2019-01-21T20:05:02.023Z,43.67
2019-01-21T20:07:30.228Z,36.23
2019-01-21T20:09:58.483Z,38.77
2019-01-21T20:12:26.716Z,56.90
2019-01-21T20:14:54.964Z,45.80
2019-01-21T20:17:23.187Z,44.77
2019-01-21T20:19:51.509Z,35.93
2019-01-21T20:22:19.733Z,41.00
2019-01-21T20:24:47.992Z,45.40
2019-01-21T20:27:16.213Z,44.17
2019-01-21T20:29:44.460Z,43.70
2019-01-21T20:32:12.748Z,50.50
2019-01-21T20:34:41.015Z,46.83
2019-01-21T20:37:09.301Z,52.53
2019-01-21T20:39:37.523Z,60.87
2019-01-21T20:42:05.777Z,46.90
2019-01-21T20:44:34.010Z,48.27
2019-01-21T20:47:02.253Z,51.97
2019-01-21T20:49:30.472Z,53.73
2019-01-21T20:51:58.724Z,43.27
2019-01-21T20:54:26.943Z,51.33
2019-01-21T20:56:55.225Z,47.23
2019-01-21T20:59:23.421Z,50.87
2019-01-21T21:01:51.671Z,71.37
2019-01-21T21:04:19.902Z,81.67
2019-01-21T21:06:48.148Z,68.33
2019-01-21T21:09:16.373Z,48.67
2019-01-21T21:11:44.627Z,94.43
2019-01-21T21:14:12.855Z,84.40
2019-01-21T21:16:41.096Z,94.97
2019-01-21T21:19:09.316Z,76.13
2019-01-21T21:21:37.561Z,44.40
2019-01-21T21:24:05.848Z,40.93
2019-01-21T21:26:34.168Z,50.67
2019-01-21T21:29:02.390Z,41.53
2019-01-21T21:31:30.645Z,54.57
2019-01-21T21:33:58.877Z,35.33
2019-01-21T21:36:27.122Z,36.13
2019-01-21T21:38:55.341Z,31.70
2019-01-21T21:41:23.601Z,44.50
2019-01-21T21:43:51.816Z,41.60
2019-01-21T21:46:20.063Z,42.90
2019-01-21T21:48:48.285Z,46.93
2019-01-21T21:51:16.733Z,54.07
2019-01-21T21:53:44.952Z,45.63
2019-01-21T21:56:13.195Z,44.03
2019-01-21T21:58:41.425Z,29.10
2019-01-21T22:01:09.672Z,40.60
2019-01-21T22:03:37.891Z,60.77
2019-01-21T22:06:06.181Z,42.27
2019-01-21T22:08:34.432Z,48.97
2019-01-21T22:11:02.651Z,46.07
2019-01-21T22:13:30.900Z,62.73
2019-01-21T22:15:59.128Z,42.43
2019-01-21T22:18:27.683Z,44.30
2019-01-21T22:20:55.910Z,42.37
2019-01-21T22:23:24.160Z,32.77
2019-01-21T22:25:52.380Z,31.00
2019-01-21T22:28:20.627Z,43.33
2019-01-21T22:30:48.847Z,36.00
2019-01-21T22:33:17.296Z,35.47
2019-01-21T22:35:45.516Z,40.07
2019-01-21T22:38:13.770Z,36.93
2019-01-21T22:40:41.988Z,42.30
2019-01-21T22:43:10.244Z,38.60
2019-01-21T22:45:38.461Z,46.33
2019-01-21T22:48:06.713Z,67.67
2019-01-21T22:50:34.939Z,50.37
2019-01-21T22:53:03.188Z,41.53
2019-01-21T22:55:31.407Z,23.97
2019-01-21T22:57:59.664Z,33.47
2019-01-21T23:00:30.992Z,29.43
2019-01-21T23:02:59.307Z,31.07
2019-01-21T23:05:27.532Z,44.83
2019-01-21T23:07:55.792Z,34.50
2019-01-21T23:10:24.076Z,39.73
2019-01-21T23:12:52.629Z,32.27
2019-01-21T23:15:20.853Z,32.00
2019-01-21T23:17:49.100Z,35.67
2019-01-21T23:20:17.311Z,31.03
2019-01-21T23:22:49.360Z,33.90
2019-01-21T23:25:15.505Z,29.07
2019-01-21T23:27:43.760Z,33.67
2019-01-21T23:30:13.520Z,28.60
2019-01-21T23:32:41.836Z,31.43
2019-01-21T23:35:10.130Z,26.17
2019-01-21T23:37:38.380Z,31.40
2019-01-21T23:40:08.576Z,31.83
2019-01-21T23:42:36.900Z,24.60
2019-01-21T23:45:06.701Z,30.17
2019-01-21T23:47:34.925Z,29.77
2019-01-21T23:50:03.847Z,22.50
2019-01-21T23:52:32.068Z,30.23
2019-01-21T23:55:00.325Z,31.97
2019-01-21T23:57:28.549Z,37.57
2019-01-21T23:59:56.805Z,47.07
